sensor_id;sensor_type;location;lat;lon;timestamp;P1;durP1;ratioP1;P2;durP2;ratioP2
5521;SDS011;2783;48.730;8.006;2023-07-20T00:00:44;3.85;;;1.80;;
5521;SDS011;2783;48.730;8.006;2023-07-20T00:03:11;5.18;;;1.60;;
5521;SDS011;2783;48.730;8.006;2023-07-20T00:05:44;4.82;;;1.58;;
5521;SDS011;2783;48.730;8.006;2023-07-20T00:08:10;3.38;;;1.65;;
5521;SDS011;2783;48.730;8.006;2023-07-20T00:10:36;4.35;;;1.90;;
5521;SDS011;2783;48.730;8.006;2023-07-20T00:13:01;4.22;;;1.88;;
5521;SDS011;2783;48.730;8.006;2023-07-20T00:15:27;4.38;;;1.67;;
5521;SDS011;2783;48.730;8.006;2023-07-20T00:17:52;4.63;;;1.88;;
5521;SDS011;2783;48.730;8.006;2023-07-20T00:20:17;8.00;;;1.92;;
5521;SDS011;2783;48.730;8.006;2023-07-20T00:22:43;3.83;;;1.98;;
5521;SDS011;2783;48.730;8.006;2023-07-20T00:25:09;4.18;;;1.67;;
5521;SDS011;2783;48.730;8.006;2023-07-20T00:27:36;3.95;;;1.67;;
5521;SDS011;2783;48.730;8.006;2023-07-20T00:30:02;4.18;;;1.70;;
5521;SDS011;2783;48.730;8.006;2023-07-20T00:32:27;4.15;;;1.80;;
5521;SDS011;2783;48.730;8.006;2023-07-20T00:34:53;5.50;;;1.90;;
5521;SDS011;2783;48.730;8.006;2023-07-20T00:37:18;4.88;;;2.15;;
5521;SDS011;2783;48.730;8.006;2023-07-20T00:39:43;4.28;;;2.03;;
5521;SDS011;2783;48.730;8.006;2023-07-20T00:42:09;4.03;;;1.75;;
5521;SDS011;2783;48.730;8.006;2023-07-20T00:44:34;4.80;;;2.10;;
5521;SDS011;2783;48.730;8.006;2023-07-20T00:46:59;3.67;;;1.65;;
5521;SDS011;2783;48.730;8.006;2023-07-20T00:49:25;5.22;;;1.95;;
5521;SDS011;2783;48.730;8.006;2023-07-20T00:51:51;6.60;;;1.95;;
5521;SDS011;2783;48.730;8.006;2023-07-20T00:54:16;4.15;;;2.05;;
5521;SDS011;2783;48.730;8.006;2023-07-20T00:56:42;3.75;;;2.20;;
5521;SDS011;2783;48.730;8.006;2023-07-20T00:59:09;5.50;;;1.77;;
5521;SDS011;2783;48.730;8.006;2023-07-20T01:01:34;5.45;;;2.15;;
5521;SDS011;2783;48.730;8.006;2023-07-20T01:04:00;5.57;;;1.90;;
5521;SDS011;2783;48.730;8.006;2023-07-20T01:07:09;7.05;;;1.90;;
5521;SDS011;2783;48.730;8.006;2023-07-20T01:09:29;4.70;;;2.05;;
5521;SDS011;2783;48.730;8.006;2023-07-20T01:14:32;4.25;;;1.98;;
5521;SDS011;2783;48.730;8.006;2023-07-20T01:16:59;5.85;;;2.17;;
5521;SDS011;2783;48.730;8.006;2023-07-20T01:19:24;5.90;;;1.83;;
5521;SDS011;2783;48.730;8.006;2023-07-20T01:21:57;5.93;;;2.55;;
5521;SDS011;2783;48.730;8.006;2023-07-20T01:24:39;4.32;;;2.33;;
5521;SDS011;2783;48.730;8.006;2023-07-20T01:27:23;2.97;;;1.60;;
5521;SDS011;2783;48.730;8.006;2023-07-20T01:33:20;6.38;;;2.20;;
5521;SDS011;2783;48.730;8.006;2023-07-20T01:35:57;5.55;;;2.83;;
5521;SDS011;2783;48.730;8.006;2023-07-20T01:38:24;5.05;;;2.80;;
5521;SDS011;2783;48.730;8.006;2023-07-20T01:40:51;4.90;;;2.35;;
5521;SDS011;2783;48.730;8.006;2023-07-20T01:43:17;5.07;;;2.30;;
5521;SDS011;2783;48.730;8.006;2023-07-20T01:45:43;7.32;;;3.35;;
5521;SDS011;2783;48.730;8.006;2023-07-20T01:48:09;6.13;;;2.72;;
5521;SDS011;2783;48.730;8.006;2023-07-20T01:50:34;5.95;;;2.65;;
5521;SDS011;2783;48.730;8.006;2023-07-20T01:53:00;5.28;;;2.83;;
5521;SDS011;2783;48.730;8.006;2023-07-20T01:55:26;4.00;;;2.13;;
5521;SDS011;2783;48.730;8.006;2023-07-20T01:57:52;7.03;;;2.38;;
5521;SDS011;2783;48.730;8.006;2023-07-20T02:00:18;4.82;;;2.35;;
5521;SDS011;2783;48.730;8.006;2023-07-20T02:02:46;5.53;;;2.08;;
5521;SDS011;2783;48.730;8.006;2023-07-20T02:05:11;7.03;;;2.95;;
5521;SDS011;2783;48.730;8.006;2023-07-20T02:07:37;3.97;;;2.10;;
5521;SDS011;2783;48.730;8.006;2023-07-20T02:10:02;4.20;;;2.20;;
5521;SDS011;2783;48.730;8.006;2023-07-20T02:12:28;5.68;;;2.42;;
5521;SDS011;2783;48.730;8.006;2023-07-20T02:14:54;3.75;;;2.17;;
5521;SDS011;2783;48.730;8.006;2023-07-20T02:17:20;5.53;;;1.95;;
5521;SDS011;2783;48.730;8.006;2023-07-20T02:19:45;4.82;;;1.80;;
5521;SDS011;2783;48.730;8.006;2023-07-20T02:22:11;4.00;;;1.90;;
5521;SDS011;2783;48.730;8.006;2023-07-20T02:24:37;5.57;;;2.25;;
5521;SDS011;2783;48.730;8.006;2023-07-20T02:27:02;4.00;;;2.10;;
5521;SDS011;2783;48.730;8.006;2023-07-20T02:29:28;6.00;;;2.40;;
5521;SDS011;2783;48.730;8.006;2023-07-20T02:31:53;5.70;;;2.17;;
5521;SDS011;2783;48.730;8.006;2023-07-20T02:34:18;6.07;;;2.28;;
5521;SDS011;2783;48.730;8.006;2023-07-20T02:36:44;4.65;;;2.08;;
5521;SDS011;2783;48.730;8.006;2023-07-20T02:39:11;5.03;;;3.30;;
5521;SDS011;2783;48.730;8.006;2023-07-20T02:41:36;4.57;;;2.20;;
5521;SDS011;2783;48.730;8.006;2023-07-20T02:44:01;4.68;;;2.40;;
5521;SDS011;2783;48.730;8.006;2023-07-20T02:46:28;6.60;;;2.60;;
5521;SDS011;2783;48.730;8.006;2023-07-20T02:48:55;3.78;;;1.95;;
5521;SDS011;2783;48.730;8.006;2023-07-20T02:51:20;4.35;;;2.25;;
5521;SDS011;2783;48.730;8.006;2023-07-20T02:53:46;5.10;;;2.20;;
5521;SDS011;2783;48.730;8.006;2023-07-20T02:56:11;5.22;;;2.10;;
5521;SDS011;2783;48.730;8.006;2023-07-20T02:58:39;7.35;;;2.70;;
5521;SDS011;2783;48.730;8.006;2023-07-20T03:01:08;4.60;;;2.47;;
5521;SDS011;2783;48.730;8.006;2023-07-20T03:03:35;4.80;;;2.47;;
5521;SDS011;2783;48.730;8.006;2023-07-20T03:06:04;4.45;;;2.42;;
5521;SDS011;2783;48.730;8.006;2023-07-20T03:08:30;5.13;;;2.40;;
5521;SDS011;2783;48.730;8.006;2023-07-20T03:10:55;7.90;;;3.33;;
5521;SDS011;2783;48.730;8.006;2023-07-20T03:13:21;4.95;;;2.00;;
5521;SDS011;2783;48.730;8.006;2023-07-20T03:15:46;3.85;;;2.20;;
5521;SDS011;2783;48.730;8.006;2023-07-20T03:18:12;4.82;;;2.47;;
5521;SDS011;2783;48.730;8.006;2023-07-20T03:20:38;6.35;;;2.60;;
5521;SDS011;2783;48.730;8.006;2023-07-20T03:23:04;5.05;;;2.42;;
5521;SDS011;2783;48.730;8.006;2023-07-20T03:25:29;5.53;;;2.67;;
5521;SDS011;2783;48.730;8.006;2023-07-20T03:27:55;5.35;;;2.55;;
5521;SDS011;2783;48.730;8.006;2023-07-20T03:30:20;5.38;;;2.55;;
5521;SDS011;2783;48.730;8.006;2023-07-20T03:32:46;5.55;;;2.38;;
5521;SDS011;2783;48.730;8.006;2023-07-20T03:35:11;5.30;;;2.28;;
5521;SDS011;2783;48.730;8.006;2023-07-20T03:37:36;6.10;;;2.65;;
5521;SDS011;2783;48.730;8.006;2023-07-20T03:40:03;7.57;;;2.67;;
5521;SDS011;2783;48.730;8.006;2023-07-20T03:42:29;4.68;;;2.35;;
5521;SDS011;2783;48.730;8.006;2023-07-20T03:44:55;4.95;;;2.38;;
5521;SDS011;2783;48.730;8.006;2023-07-20T03:47:21;5.78;;;2.55;;
5521;SDS011;2783;48.730;8.006;2023-07-20T03:49:46;5.88;;;3.13;;
5521;SDS011;2783;48.730;8.006;2023-07-20T03:52:12;4.72;;;2.78;;
5521;SDS011;2783;48.730;8.006;2023-07-20T03:54:37;4.85;;;2.70;;
5521;SDS011;2783;48.730;8.006;2023-07-20T03:57:02;5.55;;;2.53;;
5521;SDS011;2783;48.730;8.006;2023-07-20T03:59:28;4.93;;;2.58;;
5521;SDS011;2783;48.730;8.006;2023-07-20T04:01:53;4.55;;;2.38;;
5521;SDS011;2783;48.730;8.006;2023-07-20T04:04:19;5.00;;;2.83;;
5521;SDS011;2783;48.730;8.006;2023-07-20T04:06:45;6.47;;;2.55;;
5521;SDS011;2783;48.730;8.006;2023-07-20T04:09:11;3.90;;;2.28;;
5521;SDS011;2783;48.730;8.006;2023-07-20T04:11:37;5.53;;;2.53;;
5521;SDS011;2783;48.730;8.006;2023-07-20T04:14:03;5.10;;;2.80;;
5521;SDS011;2783;48.730;8.006;2023-07-20T04:16:29;4.95;;;2.60;;
5521;SDS011;2783;48.730;8.006;2023-07-20T04:18:55;5.53;;;2.72;;
5521;SDS011;2783;48.730;8.006;2023-07-20T04:21:21;4.75;;;2.47;;
5521;SDS011;2783;48.730;8.006;2023-07-20T04:23:47;4.75;;;2.63;;
5521;SDS011;2783;48.730;8.006;2023-07-20T04:26:13;4.50;;;2.63;;
5521;SDS011;2783;48.730;8.006;2023-07-20T04:28:40;4.07;;;2.28;;
5521;SDS011;2783;48.730;8.006;2023-07-20T04:31:11;4.55;;;2.28;;
5521;SDS011;2783;48.730;8.006;2023-07-20T04:33:37;5.68;;;2.53;;
5521;SDS011;2783;48.730;8.006;2023-07-20T04:36:03;5.10;;;2.55;;
5521;SDS011;2783;48.730;8.006;2023-07-20T04:38:28;4.30;;;2.38;;
5521;SDS011;2783;48.730;8.006;2023-07-20T04:40:53;6.07;;;2.67;;
5521;SDS011;2783;48.730;8.006;2023-07-20T04:43:19;5.10;;;2.35;;
5521;SDS011;2783;48.730;8.006;2023-07-20T04:45:44;5.00;;;2.28;;
5521;SDS011;2783;48.730;8.006;2023-07-20T04:48:10;9.68;;;2.58;;
5521;SDS011;2783;48.730;8.006;2023-07-20T04:50:38;5.50;;;2.63;;
5521;SDS011;2783;48.730;8.006;2023-07-20T04:53:05;5.28;;;2.50;;
5521;SDS011;2783;48.730;8.006;2023-07-20T04:55:30;6.72;;;2.58;;
5521;SDS011;2783;48.730;8.006;2023-07-20T04:57:55;7.45;;;2.13;;
5521;SDS011;2783;48.730;8.006;2023-07-20T05:00:21;4.47;;;2.42;;
5521;SDS011;2783;48.730;8.006;2023-07-20T05:02:46;5.22;;;2.63;;
5521;SDS011;2783;48.730;8.006;2023-07-20T05:05:14;8.82;;;2.85;;
5521;SDS011;2783;48.730;8.006;2023-07-20T05:07:40;4.68;;;2.35;;
5521;SDS011;2783;48.730;8.006;2023-07-20T05:10:05;7.13;;;2.20;;
5521;SDS011;2783;48.730;8.006;2023-07-20T05:12:31;5.65;;;2.97;;
5521;SDS011;2783;48.730;8.006;2023-07-20T05:14:57;5.15;;;2.45;;
5521;SDS011;2783;48.730;8.006;2023-07-20T05:17:22;5.95;;;2.80;;
5521;SDS011;2783;48.730;8.006;2023-07-20T05:19:47;7.25;;;2.53;;
5521;SDS011;2783;48.730;8.006;2023-07-20T05:22:13;5.32;;;2.38;;
5521;SDS011;2783;48.730;8.006;2023-07-20T05:24:39;5.38;;;2.38;;
5521;SDS011;2783;48.730;8.006;2023-07-20T05:27:05;7.95;;;2.40;;
5521;SDS011;2783;48.730;8.006;2023-07-20T05:29:30;9.02;;;2.45;;
5521;SDS011;2783;48.730;8.006;2023-07-20T05:31:56;10.35;;;2.45;;
5521;SDS011;2783;48.730;8.006;2023-07-20T05:34:22;10.38;;;3.83;;
5521;SDS011;2783;48.730;8.006;2023-07-20T05:36:47;6.45;;;2.10;;
5521;SDS011;2783;48.730;8.006;2023-07-20T05:39:13;21.65;;;5.60;;
5521;SDS011;2783;48.730;8.006;2023-07-20T05:41:38;10.85;;;3.08;;
5521;SDS011;2783;48.730;8.006;2023-07-20T05:44:03;8.70;;;2.88;;
5521;SDS011;2783;48.730;8.006;2023-07-20T05:46:29;10.32;;;3.08;;
5521;SDS011;2783;48.730;8.006;2023-07-20T05:48:54;6.68;;;2.28;;
5521;SDS011;2783;48.730;8.006;2023-07-20T05:51:19;3.63;;;2.13;;
5521;SDS011;2783;48.730;8.006;2023-07-20T05:53:45;5.07;;;2.17;;
5521;SDS011;2783;48.730;8.006;2023-07-20T05:56:11;7.03;;;2.30;;
5521;SDS011;2783;48.730;8.006;2023-07-20T05:58:36;4.55;;;1.70;;
5521;SDS011;2783;48.730;8.006;2023-07-20T06:01:03;5.10;;;2.35;;
5521;SDS011;2783;48.730;8.006;2023-07-20T06:03:30;4.60;;;2.13;;
5521;SDS011;2783;48.730;8.006;2023-07-20T06:06:00;7.88;;;2.17;;
5521;SDS011;2783;48.730;8.006;2023-07-20T06:08:27;22.52;;;4.72;;
5521;SDS011;2783;48.730;8.006;2023-07-20T06:10:56;10.63;;;4.95;;
5521;SDS011;2783;48.730;8.006;2023-07-20T06:13:21;22.00;;;4.03;;
5521;SDS011;2783;48.730;8.006;2023-07-20T06:15:47;7.70;;;2.10;;
5521;SDS011;2783;48.730;8.006;2023-07-20T06:18:13;4.70;;;2.05;;
5521;SDS011;2783;48.730;8.006;2023-07-20T06:20:38;5.80;;;2.00;;
5521;SDS011;2783;48.730;8.006;2023-07-20T06:23:04;12.32;;;2.38;;
5521;SDS011;2783;48.730;8.006;2023-07-20T06:25:30;3.78;;;1.52;;
5521;SDS011;2783;48.730;8.006;2023-07-20T06:27:55;4.85;;;1.92;;
5521;SDS011;2783;48.730;8.006;2023-07-20T06:30:21;4.65;;;2.00;;
5521;SDS011;2783;48.730;8.006;2023-07-20T06:32:47;6.60;;;1.80;;
5521;SDS011;2783;48.730;8.006;2023-07-20T06:35:13;3.97;;;1.70;;
5521;SDS011;2783;48.730;8.006;2023-07-20T06:37:38;4.80;;;2.40;;
5521;SDS011;2783;48.730;8.006;2023-07-20T06:40:04;4.38;;;1.60;;
5521;SDS011;2783;48.730;8.006;2023-07-20T06:42:30;7.18;;;1.98;;
5521;SDS011;2783;48.730;8.006;2023-07-20T06:44:56;5.85;;;1.77;;
5521;SDS011;2783;48.730;8.006;2023-07-20T06:47:22;5.30;;;1.95;;
5521;SDS011;2783;48.730;8.006;2023-07-20T06:49:48;5.07;;;1.73;;
5521;SDS011;2783;48.730;8.006;2023-07-20T06:52:13;2.65;;;1.65;;
5521;SDS011;2783;48.730;8.006;2023-07-20T06:54:38;3.15;;;1.70;;
5521;SDS011;2783;48.730;8.006;2023-07-20T06:57:04;3.95;;;1.50;;
5521;SDS011;2783;48.730;8.006;2023-07-20T06:59:30;4.47;;;1.77;;
5521;SDS011;2783;48.730;8.006;2023-07-20T07:01:55;2.95;;;1.65;;
5521;SDS011;2783;48.730;8.006;2023-07-20T07:04:21;7.03;;;1.50;;
5521;SDS011;2783;48.730;8.006;2023-07-20T07:06:46;5.10;;;1.45;;
5521;SDS011;2783;48.730;8.006;2023-07-20T07:09:13;4.68;;;1.50;;
5521;SDS011;2783;48.730;8.006;2023-07-20T07:11:38;6.95;;;1.80;;
5521;SDS011;2783;48.730;8.006;2023-07-20T07:14:04;6.05;;;1.60;;
5521;SDS011;2783;48.730;8.006;2023-07-20T07:16:29;4.82;;;1.70;;
5521;SDS011;2783;48.730;8.006;2023-07-20T07:18:54;6.03;;;1.15;;
5521;SDS011;2783;48.730;8.006;2023-07-20T07:21:20;5.72;;;1.63;;
5521;SDS011;2783;48.730;8.006;2023-07-20T07:23:46;3.88;;;1.42;;
5521;SDS011;2783;48.730;8.006;2023-07-20T07:26:12;2.85;;;1.30;;
5521;SDS011;2783;48.730;8.006;2023-07-20T07:28:38;3.03;;;1.50;;
5521;SDS011;2783;48.730;8.006;2023-07-20T07:31:06;4.22;;;1.38;;
5521;SDS011;2783;48.730;8.006;2023-07-20T07:33:32;2.78;;;1.23;;
5521;SDS011;2783;48.730;8.006;2023-07-20T07:35:58;4.35;;;1.33;;
5521;SDS011;2783;48.730;8.006;2023-07-20T07:38:23;3.15;;;1.30;;
5521;SDS011;2783;48.730;8.006;2023-07-20T07:40:49;2.67;;;1.05;;
5521;SDS011;2783;48.730;8.006;2023-07-20T07:43:14;4.55;;;1.70;;
5521;SDS011;2783;48.730;8.006;2023-07-20T07:45:40;6.35;;;1.40;;
5521;SDS011;2783;48.730;8.006;2023-07-20T07:48:06;6.78;;;1.95;;
5521;SDS011;2783;48.730;8.006;2023-07-20T07:50:33;4.35;;;1.48;;
5521;SDS011;2783;48.730;8.006;2023-07-20T07:52:59;3.60;;;1.55;;
5521;SDS011;2783;48.730;8.006;2023-07-20T07:55:24;2.85;;;1.65;;
5521;SDS011;2783;48.730;8.006;2023-07-20T07:57:53;4.55;;;1.48;;
5521;SDS011;2783;48.730;8.006;2023-07-20T08:00:18;2.38;;;1.30;;
5521;SDS011;2783;48.730;8.006;2023-07-20T08:02:44;3.92;;;1.15;;
5521;SDS011;2783;48.730;8.006;2023-07-20T08:05:12;5.88;;;1.10;;
5521;SDS011;2783;48.730;8.006;2023-07-20T08:07:37;4.13;;;1.13;;
5521;SDS011;2783;48.730;8.006;2023-07-20T08:10:03;3.33;;;1.40;;
5521;SDS011;2783;48.730;8.006;2023-07-20T08:12:29;2.88;;;1.23;;
5521;SDS011;2783;48.730;8.006;2023-07-20T08:14:54;4.60;;;1.60;;
5521;SDS011;2783;48.730;8.006;2023-07-20T08:17:20;4.78;;;1.10;;
5521;SDS011;2783;48.730;8.006;2023-07-20T08:19:46;1.23;;;0.77;;
5521;SDS011;2783;48.730;8.006;2023-07-20T08:22:11;5.38;;;1.00;;
5521;SDS011;2783;48.730;8.006;2023-07-20T08:24:40;2.72;;;1.15;;
5521;SDS011;2783;48.730;8.006;2023-07-20T08:27:06;3.85;;;1.10;;
5521;SDS011;2783;48.730;8.006;2023-07-20T08:29:32;3.10;;;1.20;;
5521;SDS011;2783;48.730;8.006;2023-07-20T08:31:57;5.82;;;1.17;;
5521;SDS011;2783;48.730;8.006;2023-07-20T08:34:23;2.63;;;1.10;;
5521;SDS011;2783;48.730;8.006;2023-07-20T08:36:48;2.70;;;1.20;;
5521;SDS011;2783;48.730;8.006;2023-07-20T08:39:13;2.40;;;1.05;;
5521;SDS011;2783;48.730;8.006;2023-07-20T08:41:39;2.65;;;1.20;;
5521;SDS011;2783;48.730;8.006;2023-07-20T08:44:11;2.73;;;1.20;;
5521;SDS011;2783;48.730;8.006;2023-07-20T08:46:38;2.20;;;1.00;;
5521;SDS011;2783;48.730;8.006;2023-07-20T08:49:04;2.55;;;0.88;;
5521;SDS011;2783;48.730;8.006;2023-07-20T08:51:30;2.05;;;1.05;;
5521;SDS011;2783;48.730;8.006;2023-07-20T08:53:55;2.80;;;1.08;;
5521;SDS011;2783;48.730;8.006;2023-07-20T08:56:21;4.28;;;1.23;;
5521;SDS011;2783;48.730;8.006;2023-07-20T08:58:50;3.25;;;1.00;;
5521;SDS011;2783;48.730;8.006;2023-07-20T09:01:17;1.77;;;1.00;;
5521;SDS011;2783;48.730;8.006;2023-07-20T09:03:43;3.22;;;1.10;;
5521;SDS011;2783;48.730;8.006;2023-07-20T09:06:10;3.30;;;1.15;;
5521;SDS011;2783;48.730;8.006;2023-07-20T09:08:39;4.43;;;1.20;;
5521;SDS011;2783;48.730;8.006;2023-07-20T09:11:10;2.10;;;1.08;;
5521;SDS011;2783;48.730;8.006;2023-07-20T09:13:37;2.35;;;1.23;;
5521;SDS011;2783;48.730;8.006;2023-07-20T09:16:02;2.85;;;0.95;;
5521;SDS011;2783;48.730;8.006;2023-07-20T09:18:31;2.40;;;1.10;;
5521;SDS011;2783;48.730;8.006;2023-07-20T09:20:58;4.57;;;1.30;;
5521;SDS011;2783;48.730;8.006;2023-07-20T09:23:31;1.58;;;0.80;;
5521;SDS011;2783;48.730;8.006;2023-07-20T09:25:58;2.47;;;1.10;;
5521;SDS011;2783;48.730;8.006;2023-07-20T09:28:24;2.47;;;1.10;;
5521;SDS011;2783;48.730;8.006;2023-07-20T09:30:49;4.50;;;1.42;;
5521;SDS011;2783;48.730;8.006;2023-07-20T09:33:18;2.35;;;0.90;;
5521;SDS011;2783;48.730;8.006;2023-07-20T09:35:44;1.25;;;0.70;;
5521;SDS011;2783;48.730;8.006;2023-07-20T09:38:10;2.35;;;0.98;;
5521;SDS011;2783;48.730;8.006;2023-07-20T09:40:38;2.70;;;0.80;;
5521;SDS011;2783;48.730;8.006;2023-07-20T09:43:07;2.53;;;1.00;;
5521;SDS011;2783;48.730;8.006;2023-07-20T09:45:33;2.92;;;1.27;;
5521;SDS011;2783;48.730;8.006;2023-07-20T09:48:07;5.15;;;1.15;;
5521;SDS011;2783;48.730;8.006;2023-07-20T09:50:34;2.83;;;0.70;;
5521;SDS011;2783;48.730;8.006;2023-07-20T09:53:05;2.10;;;0.90;;
5521;SDS011;2783;48.730;8.006;2023-07-20T09:55:32;3.25;;;0.80;;
5521;SDS011;2783;48.730;8.006;2023-07-20T09:57:58;2.38;;;0.70;;
5521;SDS011;2783;48.730;8.006;2023-07-20T10:00:25;2.47;;;0.88;;
5521;SDS011;2783;48.730;8.006;2023-07-20T10:02:51;2.53;;;0.70;;
5521;SDS011;2783;48.730;8.006;2023-07-20T10:05:17;3.78;;;1.25;;
5521;SDS011;2783;48.730;8.006;2023-07-20T10:07:47;2.65;;;0.90;;
5521;SDS011;2783;48.730;8.006;2023-07-20T10:10:15;1.98;;;0.80;;
5521;SDS011;2783;48.730;8.006;2023-07-20T10:12:48;2.58;;;0.70;;
5521;SDS011;2783;48.730;8.006;2023-07-20T10:15:24;2.35;;;0.80;;
5521;SDS011;2783;48.730;8.006;2023-07-20T10:17:59;3.83;;;0.70;;
5521;SDS011;2783;48.730;8.006;2023-07-20T10:20:29;2.28;;;0.70;;
5521;SDS011;2783;48.730;8.006;2023-07-20T10:22:57;2.67;;;0.80;;
5521;SDS011;2783;48.730;8.006;2023-07-20T10:25:23;2.25;;;0.80;;
5521;SDS011;2783;48.730;8.006;2023-07-20T10:27:48;1.38;;;0.73;;
5521;SDS011;2783;48.730;8.006;2023-07-20T10:30:14;2.42;;;0.77;;
5521;SDS011;2783;48.730;8.006;2023-07-20T10:32:40;3.40;;;0.73;;
5521;SDS011;2783;48.730;8.006;2023-07-20T10:35:14;2.13;;;0.70;;
5521;SDS011;2783;48.730;8.006;2023-07-20T10:40:34;2.58;;;0.85;;
5521;SDS011;2783;48.730;8.006;2023-07-20T10:43:05;1.23;;;0.60;;
5521;SDS011;2783;48.730;8.006;2023-07-20T10:45:41;2.03;;;0.70;;
5521;SDS011;2783;48.730;8.006;2023-07-20T10:48:18;2.67;;;0.75;;
5521;SDS011;2783;48.730;8.006;2023-07-20T10:50:45;0.93;;;0.52;;
5521;SDS011;2783;48.730;8.006;2023-07-20T10:53:31;1.98;;;0.60;;
5521;SDS011;2783;48.730;8.006;2023-07-20T10:56:11;5.03;;;0.70;;
5521;SDS011;2783;48.730;8.006;2023-07-20T10:58:38;1.98;;;0.70;;
5521;SDS011;2783;48.730;8.006;2023-07-20T11:01:05;1.13;;;0.63;;
5521;SDS011;2783;48.730;8.006;2023-07-20T11:03:32;1.75;;;0.70;;
5521;SDS011;2783;48.730;8.006;2023-07-20T11:05:59;2.28;;;0.80;;
5521;SDS011;2783;48.730;8.006;2023-07-20T11:08:43;3.08;;;0.80;;
5521;SDS011;2783;48.730;8.006;2023-07-20T11:11:21;1.95;;;0.63;;
5521;SDS011;2783;48.730;8.006;2023-07-20T11:13:53;1.65;;;0.80;;
5521;SDS011;2783;48.730;8.006;2023-07-20T11:16:33;1.42;;;0.60;;
5521;SDS011;2783;48.730;8.006;2023-07-20T11:19:06;3.13;;;0.75;;
5521;SDS011;2783;48.730;8.006;2023-07-20T11:21:40;2.58;;;0.82;;
5521;SDS011;2783;48.730;8.006;2023-07-20T11:24:07;0.88;;;0.40;;
5521;SDS011;2783;48.730;8.006;2023-07-20T11:26:47;3.28;;;0.70;;
5521;SDS011;2783;48.730;8.006;2023-07-20T11:29:19;1.85;;;0.70;;
5521;SDS011;2783;48.730;8.006;2023-07-20T11:31:46;2.60;;;0.75;;
5521;SDS011;2783;48.730;8.006;2023-07-20T11:34:14;3.28;;;0.60;;
5521;SDS011;2783;48.730;8.006;2023-07-20T11:36:41;2.30;;;0.60;;
5521;SDS011;2783;48.730;8.006;2023-07-20T11:39:08;2.25;;;0.68;;
5521;SDS011;2783;48.730;8.006;2023-07-20T11:41:35;1.42;;;0.50;;
5521;SDS011;2783;48.730;8.006;2023-07-20T11:44:00;0.93;;;0.50;;
5521;SDS011;2783;48.730;8.006;2023-07-20T11:46:27;4.65;;;1.23;;
5521;SDS011;2783;48.730;8.006;2023-07-20T11:49:00;1.77;;;0.50;;
5521;SDS011;2783;48.730;8.006;2023-07-20T11:51:26;2.17;;;0.90;;
5521;SDS011;2783;48.730;8.006;2023-07-20T11:53:53;2.03;;;0.75;;
5521;SDS011;2783;48.730;8.006;2023-07-20T11:56:19;1.70;;;0.63;;
5521;SDS011;2783;48.730;8.006;2023-07-20T11:58:44;1.38;;;0.65;;
5521;SDS011;2783;48.730;8.006;2023-07-20T12:01:14;1.23;;;0.50;;
5521;SDS011;2783;48.730;8.006;2023-07-20T12:03:41;1.48;;;0.60;;
5521;SDS011;2783;48.730;8.006;2023-07-20T12:06:07;1.23;;;0.60;;
5521;SDS011;2783;48.730;8.006;2023-07-20T12:08:39;1.25;;;0.63;;
5521;SDS011;2783;48.730;8.006;2023-07-20T12:11:06;2.65;;;0.85;;
5521;SDS011;2783;48.730;8.006;2023-07-20T12:13:42;2.55;;;0.93;;
5521;SDS011;2783;48.730;8.006;2023-07-20T12:16:15;8.63;;;0.95;;
5521;SDS011;2783;48.730;8.006;2023-07-20T12:18:44;2.45;;;0.90;;
5521;SDS011;2783;48.730;8.006;2023-07-20T12:21:10;5.28;;;0.77;;
5521;SDS011;2783;48.730;8.006;2023-07-20T12:23:39;1.10;;;0.73;;
5521;SDS011;2783;48.730;8.006;2023-07-20T12:26:06;2.20;;;0.60;;
5521;SDS011;2783;48.730;8.006;2023-07-20T12:28:41;2.28;;;0.80;;
5521;SDS011;2783;48.730;8.006;2023-07-20T12:31:07;2.30;;;0.73;;
5521;SDS011;2783;48.730;8.006;2023-07-20T12:33:33;2.80;;;0.75;;
5521;SDS011;2783;48.730;8.006;2023-07-20T12:35:59;2.15;;;0.80;;
5521;SDS011;2783;48.730;8.006;2023-07-20T12:38:26;3.05;;;0.75;;
5521;SDS011;2783;48.730;8.006;2023-07-20T12:40:52;1.50;;;0.80;;
5521;SDS011;2783;48.730;8.006;2023-07-20T12:43:20;2.10;;;0.50;;
5521;SDS011;2783;48.730;8.006;2023-07-20T12:45:46;1.65;;;0.70;;
5521;SDS011;2783;48.730;8.006;2023-07-20T12:48:12;1.75;;;0.73;;
5521;SDS011;2783;48.730;8.006;2023-07-20T12:50:37;1.50;;;0.75;;
5521;SDS011;2783;48.730;8.006;2023-07-20T12:53:03;2.83;;;0.88;;
5521;SDS011;2783;48.730;8.006;2023-07-20T12:55:28;1.25;;;0.75;;
5521;SDS011;2783;48.730;8.006;2023-07-20T12:57:54;1.15;;;0.52;;
5521;SDS011;2783;48.730;8.006;2023-07-20T13:00:20;0.98;;;0.60;;
5521;SDS011;2783;48.730;8.006;2023-07-20T13:02:48;2.50;;;0.70;;
5521;SDS011;2783;48.730;8.006;2023-07-20T13:05:13;2.08;;;0.75;;
5521;SDS011;2783;48.730;8.006;2023-07-20T13:07:40;1.85;;;0.70;;
5521;SDS011;2783;48.730;8.006;2023-07-20T13:10:06;1.00;;;0.55;;
5521;SDS011;2783;48.730;8.006;2023-07-20T13:12:33;1.38;;;0.50;;
5521;SDS011;2783;48.730;8.006;2023-07-20T13:15:01;3.92;;;0.70;;
5521;SDS011;2783;48.730;8.006;2023-07-20T13:17:31;2.25;;;0.50;;
5521;SDS011;2783;48.730;8.006;2023-07-20T13:19:57;0.90;;;0.55;;
5521;SDS011;2783;48.730;8.006;2023-07-20T13:22:22;1.02;;;0.60;;
5521;SDS011;2783;48.730;8.006;2023-07-20T13:24:48;1.25;;;0.60;;
5521;SDS011;2783;48.730;8.006;2023-07-20T13:27:15;3.00;;;0.70;;
5521;SDS011;2783;48.730;8.006;2023-07-20T13:29:41;1.63;;;0.73;;
5521;SDS011;2783;48.730;8.006;2023-07-20T13:32:07;3.00;;;0.80;;
5521;SDS011;2783;48.730;8.006;2023-07-20T13:34:33;1.67;;;0.73;;
5521;SDS011;2783;48.730;8.006;2023-07-20T13:36:59;1.00;;;0.63;;
5521;SDS011;2783;48.730;8.006;2023-07-20T13:39:25;1.38;;;0.68;;
5521;SDS011;2783;48.730;8.006;2023-07-20T13:41:52;1.42;;;0.65;;
5521;SDS011;2783;48.730;8.006;2023-07-20T13:44:18;2.08;;;0.57;;
5521;SDS011;2783;48.730;8.006;2023-07-20T13:46:45;1.42;;;0.63;;
5521;SDS011;2783;48.730;8.006;2023-07-20T13:49:10;3.08;;;0.73;;
5521;SDS011;2783;48.730;8.006;2023-07-20T13:51:36;1.63;;;0.52;;
5521;SDS011;2783;48.730;8.006;2023-07-20T13:54:01;1.70;;;0.70;;
5521;SDS011;2783;48.730;8.006;2023-07-20T13:56:27;1.92;;;0.63;;
5521;SDS011;2783;48.730;8.006;2023-07-20T13:58:52;1.52;;;0.60;;
5521;SDS011;2783;48.730;8.006;2023-07-20T14:01:17;2.38;;;0.90;;
5521;SDS011;2783;48.730;8.006;2023-07-20T14:03:44;2.42;;;0.73;;
5521;SDS011;2783;48.730;8.006;2023-07-20T14:06:09;2.10;;;0.60;;
5521;SDS011;2783;48.730;8.006;2023-07-20T14:08:36;2.75;;;0.82;;
5521;SDS011;2783;48.730;8.006;2023-07-20T14:11:01;1.77;;;0.68;;
5521;SDS011;2783;48.730;8.006;2023-07-20T14:13:27;3.50;;;0.88;;
5521;SDS011;2783;48.730;8.006;2023-07-20T14:15:52;1.08;;;0.57;;
5521;SDS011;2783;48.730;8.006;2023-07-20T14:18:18;2.42;;;0.70;;
5521;SDS011;2783;48.730;8.006;2023-07-20T14:20:43;2.10;;;0.70;;
5521;SDS011;2783;48.730;8.006;2023-07-20T14:23:09;2.38;;;0.90;;
5521;SDS011;2783;48.730;8.006;2023-07-20T14:25:35;1.73;;;0.73;;
5521;SDS011;2783;48.730;8.006;2023-07-20T14:28:00;1.58;;;1.00;;
5521;SDS011;2783;48.730;8.006;2023-07-20T14:30:26;1.92;;;0.70;;
5521;SDS011;2783;48.730;8.006;2023-07-20T14:32:51;1.90;;;0.50;;
5521;SDS011;2783;48.730;8.006;2023-07-20T14:35:17;2.17;;;0.75;;
5521;SDS011;2783;48.730;8.006;2023-07-20T14:37:42;2.83;;;0.80;;
5521;SDS011;2783;48.730;8.006;2023-07-20T14:40:11;2.55;;;0.70;;
5521;SDS011;2783;48.730;8.006;2023-07-20T14:42:37;2.72;;;0.90;;
5521;SDS011;2783;48.730;8.006;2023-07-20T14:45:03;0.93;;;0.52;;
5521;SDS011;2783;48.730;8.006;2023-07-20T14:47:30;1.92;;;0.75;;
5521;SDS011;2783;48.730;8.006;2023-07-20T14:50:00;2.58;;;0.63;;
5521;SDS011;2783;48.730;8.006;2023-07-20T14:52:27;1.98;;;0.82;;
5521;SDS011;2783;48.730;8.006;2023-07-20T14:54:53;2.47;;;0.82;;
5521;SDS011;2783;48.730;8.006;2023-07-20T14:57:19;2.67;;;0.70;;
5521;SDS011;2783;48.730;8.006;2023-07-20T14:59:45;2.25;;;0.70;;
5521;SDS011;2783;48.730;8.006;2023-07-20T15:02:11;2.72;;;0.70;;
5521;SDS011;2783;48.730;8.006;2023-07-20T15:04:36;0.93;;;0.68;;
5521;SDS011;2783;48.730;8.006;2023-07-20T15:07:02;1.75;;;0.75;;
5521;SDS011;2783;48.730;8.006;2023-07-20T15:09:28;4.75;;;0.80;;
5521;SDS011;2783;48.730;8.006;2023-07-20T15:11:53;7.55;;;0.93;;
5521;SDS011;2783;48.730;8.006;2023-07-20T15:14:18;6.47;;;0.90;;
5521;SDS011;2783;48.730;8.006;2023-07-20T15:16:44;1.23;;;0.63;;
5521;SDS011;2783;48.730;8.006;2023-07-20T15:19:09;2.47;;;0.75;;
5521;SDS011;2783;48.730;8.006;2023-07-20T15:21:38;1.45;;;0.80;;